KMMT/MMT METAR and TAF weather

Enter ICAO airport designator
Station Type Date Time Source
KMMT METAR 2020/10/20 15:56 UTC NOAA

KMMT 201556Z 03004KT 10SM FEW100 BKN220 23/17 A3022 RMK AO2A SLP235 T02320167 $


Station Type Date Time Source
KMMT Decoded METAR 2020/10/20 15:56 UTC NOAA

McEntire Air National Guard Weather Facility Base, SC, United States (KMMT) 33-55N 080-48W
Oct 20, 2020 - 11:56 AM EDT / 2020.10.20 1556 UTC
Wind: from the NNE (030 degrees) at 5 MPH (4 KT):0
Visibility: 10 mile(s):0
Sky conditions: mostly cloudy
Temperature: 73.8 F (23.2 C)
Dew Point: 62.1 F (16.7 C)
Relative Humidity: 66%
Pressure (altimeter): 30.22 in. Hg (1023 hPa)
ob: KMMT 201556Z 03004KT 10SM FEW100 BKN220 23/17 A3022 RMK AO2A SLP235 T02320167
cycle: 16

Station Type Date Time Source
KMMT TAF 2020/10/20 15:06 UTC NOAA

TAF KMMT 201500Z 2015/2121 05006KT 9999 FEW020 BKN200 QNH3016INS
BECMG 2101/2102 05006KT 9999 SCT015 BKN200 QNH3017INS
BECMG 2105/2106 05006KT 4800 BR OVC003 QNH3018INS
BECMG 2114/2115 06010G15KT 9999 NSW SCT030 BKN200 QNH3022INS TX27/2020Z TN14/2110Z

Example: see airport list